createdAt,value
2022-08-10T00:01:51.536Z,99.90
2022-08-10T00:04:22.140Z,99.90
2022-08-10T00:06:52.693Z,99.90
2022-08-10T00:09:23.014Z,99.90
2022-08-10T00:11:51.407Z,99.90
2022-08-10T00:14:20.421Z,99.90
2022-08-10T00:16:48.785Z,99.90
2022-08-10T00:19:18.147Z,99.90
2022-08-10T00:21:46.973Z,99.90
2022-08-10T00:24:15.819Z,99.90
2022-08-10T00:28:00.822Z,99.90
2022-08-10T00:29:34.608Z,99.90
2022-08-10T00:32:03.221Z,99.90
2022-08-10T00:34:33.060Z,99.90
2022-08-10T00:37:02.080Z,99.90
2022-08-10T00:39:36.135Z,99.90
2022-08-10T00:42:08.477Z,99.90
2022-08-10T00:44:37.964Z,99.90
2022-08-10T00:47:06.678Z,99.90
2022-08-10T00:49:35.386Z,99.90
2022-08-10T00:52:04.112Z,99.90
2022-08-10T00:54:33.298Z,99.90
2022-08-10T00:57:16.490Z,99.90
2022-08-10T00:59:57.854Z,99.90
2022-08-10T01:02:29.780Z,99.90
2022-08-10T01:05:01.655Z,99.90
2022-08-10T01:07:50.602Z,99.90
2022-08-10T01:10:30.927Z,99.90
2022-08-10T01:13:06.618Z,99.90
2022-08-10T01:15:47.554Z,99.90
2022-08-10T01:18:19.704Z,99.90
2022-08-10T01:21:05.795Z,99.90
2022-08-10T01:23:54.924Z,99.90
2022-08-10T01:26:40.768Z,99.90
2022-08-10T01:29:19.219Z,99.90
2022-08-10T01:31:53.256Z,99.90
2022-08-10T01:34:26.782Z,99.90
2022-08-10T01:37:03.056Z,99.90
2022-08-10T01:39:38.015Z,99.90
2022-08-10T01:42:09.002Z,99.90
2022-08-10T01:44:45.412Z,99.90
2022-08-10T01:47:32.053Z,99.90
2022-08-10T01:50:04.333Z,99.90
2022-08-10T01:52:35.148Z,99.90
2022-08-10T01:55:04.288Z,99.90
2022-08-10T01:57:35.206Z,99.90
2022-08-10T02:00:04.242Z,99.90
2022-08-10T02:02:39.020Z,99.90
2022-08-10T02:05:08.604Z,99.90
2022-08-10T02:07:38.965Z,99.90
2022-08-10T02:10:11.793Z,99.90
2022-08-10T02:12:43.701Z,99.90
2022-08-10T02:15:15.950Z,99.90
2022-08-10T02:17:59.748Z,99.90
2022-08-10T02:20:34.600Z,99.90
2022-08-10T02:23:06.301Z,99.90
2022-08-10T02:25:41.909Z,99.90
2022-08-10T02:28:27.138Z,99.90
2022-08-10T02:31:06.259Z,99.90
2022-08-10T02:33:38.383Z,99.90
2022-08-10T02:36:10.058Z,99.90
2022-08-10T02:38:58.622Z,99.90
2022-08-10T02:45:02.316Z,99.90
2022-08-10T02:45:22.694Z,99.90
2022-08-10T02:47:22.945Z,99.90
2022-08-10T02:49:58.394Z,99.90
2022-08-10T02:52:36.278Z,99.90
2022-08-10T02:55:17.404Z,99.90
2022-08-10T02:58:17.133Z,99.90
2022-08-10T03:00:45.713Z,99.90
2022-08-10T03:03:20.856Z,99.90
2022-08-10T03:05:53.928Z,99.90
2022-08-10T03:08:26.910Z,99.90
2022-08-10T03:10:57.502Z,99.90
2022-08-10T03:13:27.566Z,99.90
2022-08-10T03:15:57.296Z,99.90
2022-08-10T03:18:27.029Z,99.90
2022-08-10T03:20:57.818Z,99.90
2022-08-10T03:23:28.045Z,99.90
2022-08-10T03:25:58.461Z,99.90
2022-08-10T03:28:28.519Z,99.90
2022-08-10T03:30:58.325Z,99.90
2022-08-10T03:33:28.841Z,99.90
2022-08-10T03:36:41.229Z,99.90
2022-08-10T03:38:51.507Z,99.90
2022-08-10T03:41:25.336Z,99.90
2022-08-10T03:43:59.819Z,99.90
2022-08-10T03:46:29.554Z,99.90
2022-08-10T03:49:01.471Z,99.90
2022-08-10T03:51:31.914Z,99.90
2022-08-10T03:54:02.759Z,99.90
2022-08-10T03:56:40.029Z,99.90
2022-08-10T03:59:11.133Z,99.90
2022-08-10T04:02:43.418Z,99.90
2022-08-10T04:04:28.379Z,99.90
2022-08-10T04:07:00.189Z,99.90
2022-08-10T04:09:53.381Z,99.90
2022-08-10T04:12:19.446Z,99.90
2022-08-10T04:14:51.249Z,99.90
2022-08-10T04:18:00.149Z,99.90
2022-08-10T04:20:17.251Z,99.90
2022-08-10T04:22:49.135Z,99.90
2022-08-10T04:25:18.263Z,99.90
2022-08-10T04:27:47.805Z,99.90
2022-08-10T04:30:16.397Z,99.90
2022-08-10T04:32:46.993Z,99.90
2022-08-10T04:35:17.713Z,99.90
2022-08-10T04:37:49.375Z,99.90
2022-08-10T04:40:29.934Z,99.90
2022-08-10T04:43:05.855Z,99.90
2022-08-10T04:45:47.462Z,99.90
2022-08-10T04:48:43.016Z,99.90
2022-08-10T04:51:10.994Z,99.90
2022-08-10T04:54:05.224Z,99.90
2022-08-10T04:56:33.938Z,99.90
2022-08-10T04:59:02.230Z,99.90
2022-08-10T05:02:22.541Z,99.90
2022-08-10T05:04:38.063Z,99.90
2022-08-10T05:07:11.146Z,99.90
2022-08-10T05:10:03.045Z,99.90
2022-08-10T05:12:37.332Z,99.90
2022-08-10T05:15:08.424Z,99.90
2022-08-10T05:17:37.052Z,99.90
2022-08-10T05:20:07.682Z,99.90
2022-08-10T05:22:38.358Z,99.90
2022-08-10T05:25:10.883Z,99.90
2022-08-10T05:27:39.605Z,99.90
2022-08-10T05:30:09.816Z,99.90
2022-08-10T05:32:59.036Z,99.90
2022-08-10T05:35:27.822Z,99.90
2022-08-10T05:38:10.693Z,99.90
2022-08-10T05:40:46.563Z,99.90
2022-08-10T05:43:18.317Z,99.90
2022-08-10T05:46:18.779Z,99.90
2022-08-10T05:48:57.296Z,99.90
2022-08-10T05:51:25.361Z,99.90
2022-08-10T05:54:01.746Z,99.90
2022-08-10T05:56:54.908Z,99.90
2022-08-10T06:00:33.148Z,99.90
2022-08-10T06:02:30.638Z,99.90
2022-08-10T06:05:08.320Z,99.90
2022-08-10T06:07:40.249Z,99.90
2022-08-10T06:10:12.817Z,99.90
2022-08-10T06:12:54.027Z,99.90
2022-08-10T06:15:51.440Z,99.90
2022-08-10T06:18:16.478Z,99.90
2022-08-10T06:20:46.951Z,99.90
2022-08-10T06:23:16.010Z,99.90
2022-08-10T06:26:09.752Z,99.90
2022-08-10T06:32:19.427Z,99.90
2022-08-10T06:34:52.065Z,99.90
2022-08-10T06:37:23.424Z,99.90
2022-08-10T06:39:51.952Z,99.90
2022-08-10T06:42:28.931Z,99.90
2022-08-10T06:45:01.558Z,99.90
2022-08-10T06:47:38.358Z,99.90
2022-08-10T06:50:12.162Z,99.90
2022-08-10T06:52:43.338Z,99.90
2022-08-10T06:55:16.854Z,99.90
2022-08-10T06:58:00.037Z,99.90
2022-08-10T07:00:33.853Z,99.90
2022-08-10T07:03:09.815Z,99.90
2022-08-10T07:05:46.844Z,99.90
2022-08-10T07:08:19.430Z,99.90
2022-08-10T07:10:49.401Z,99.90
2022-08-10T07:14:16.602Z,99.90
2022-08-10T07:16:13.880Z,99.90
2022-08-10T07:18:44.237Z,99.90
2022-08-10T07:21:14.237Z,99.90
2022-08-10T07:23:57.128Z,99.90
2022-08-10T07:26:30.024Z,99.90
2022-08-10T07:28:59.468Z,99.90
2022-08-10T07:31:54.787Z,99.90
2022-08-10T07:34:29.160Z,99.90
2022-08-10T07:37:02.766Z,99.90
2022-08-10T07:40:02.552Z,99.90
2022-08-10T07:42:25.461Z,99.90
2022-08-10T07:44:54.320Z,99.90
2022-08-10T07:50:35.321Z,99.90
2022-08-10T07:53:06.200Z,99.90
2022-08-10T07:56:01.830Z,99.90
2022-08-10T08:01:39.896Z,99.90
2022-08-10T08:07:21.466Z,99.90
2022-08-10T08:09:58.179Z,99.90
2022-08-10T08:12:36.752Z,99.90
2022-08-10T08:16:15.939Z,99.90
2022-08-10T08:18:00.829Z,99.90
2022-08-10T08:20:31.155Z,99.90
2022-08-10T08:24:10.567Z,99.90
2022-08-10T08:26:25.721Z,99.90
2022-08-10T08:29:04.894Z,99.90
2022-08-10T08:31:36.829Z,99.80
2022-08-10T08:34:24.565Z,99.90
2022-08-10T08:36:59.807Z,99.20
2022-08-10T08:39:47.385Z,98.30
2022-08-10T08:42:53.385Z,98.60
2022-08-10T09:23:11.292Z,92.50
2022-08-10T09:26:31.609Z,92.40
2022-08-10T09:29:46.274Z,92.40
2022-08-10T12:14:21.770Z,73.70
2022-08-10T12:17:00.145Z,73.90
2022-08-10T12:22:40.371Z,74.60
2022-08-10T12:25:56.409Z,74.00
2022-08-10T12:28:50.488Z,74.90
2022-08-10T12:31:36.409Z,76.00
2022-08-10T12:34:18.441Z,74.30
2022-08-10T13:00:17.449Z,74.20
2022-08-10T13:02:49.444Z,75.80
2022-08-10T13:18:18.265Z,74.90
2022-08-10T13:21:21.324Z,73.10
2022-08-10T13:24:10.579Z,74.30
2022-08-10T13:28:01.138Z,72.80
2022-08-10T13:30:35.573Z,74.10
2022-08-10T13:33:10.720Z,74.20
2022-08-10T13:35:40.400Z,74.20
2022-08-10T13:38:15.940Z,75.20
2022-08-10T13:40:50.059Z,75.20
2022-08-10T13:43:22.388Z,75.20
2022-08-10T13:45:52.188Z,76.80
2022-08-10T13:48:26.503Z,75.50
2022-08-10T13:51:01.977Z,76.00
2022-08-10T13:53:33.064Z,75.50
2022-08-10T13:56:05.355Z,74.70
2022-08-10T13:58:38.902Z,75.30
2022-08-10T14:01:40.856Z,75.60
2022-08-10T14:04:25.970Z,74.30
2022-08-10T14:07:05.333Z,73.00
2022-08-10T14:11:02.091Z,74.20
2022-08-10T14:13:48.494Z,73.60
2022-08-10T14:16:30.995Z,73.00
2022-08-10T14:22:33.850Z,73.90
2022-08-10T14:25:18.386Z,72.00
2022-08-10T14:28:02.801Z,73.30
2022-08-10T14:30:34.413Z,74.10
2022-08-10T14:33:05.348Z,74.30
2022-08-10T14:36:19.683Z,73.30
2022-08-10T14:38:34.768Z,73.30
2022-08-10T14:41:06.168Z,73.20
2022-08-10T14:43:43.445Z,72.60
2022-08-10T14:46:31.670Z,72.60
2022-08-10T14:53:36.771Z,72.60
2022-08-10T14:56:56.465Z,73.20
2022-08-10T15:00:22.895Z,73.30
2022-08-10T15:20:02.957Z,73.40
2022-08-10T15:22:59.996Z,74.20
2022-08-10T15:26:10.661Z,74.30
2022-08-10T17:59:52.383Z,76.00
2022-08-10T18:02:28.364Z,76.30
2022-08-10T18:05:01.105Z,76.80
2022-08-10T18:07:35.555Z,76.90
2022-08-10T18:10:08.029Z,76.80
2022-08-10T18:12:45.414Z,76.40
2022-08-10T18:15:37.377Z,77.00
2022-08-10T18:18:13.047Z,77.30
2022-08-10T18:20:45.030Z,77.40
2022-08-10T18:23:16.288Z,77.30
2022-08-10T18:25:48.180Z,77.00
2022-08-10T18:28:20.585Z,77.40
2022-08-10T18:30:56.092Z,77.60
2022-08-10T18:33:33.482Z,77.80
2022-08-10T18:36:05.455Z,77.90
2022-08-10T18:38:39.320Z,77.60
2022-08-10T18:41:12.303Z,77.90
2022-08-10T18:44:05.480Z,78.00
2022-08-10T18:46:50.708Z,77.60
2022-08-10T18:49:35.041Z,78.20
2022-08-10T18:52:09.525Z,78.40
2022-08-10T18:54:49.654Z,78.20
2022-08-10T18:57:36.698Z,78.70
2022-08-10T19:00:10.556Z,78.80
2022-08-10T19:03:16.912Z,79.20
2022-08-10T19:06:16.546Z,79.40
2022-08-10T19:08:57.132Z,81.00
2022-08-10T19:11:46.494Z,82.40
2022-08-10T19:14:20.665Z,83.10
2022-08-10T19:17:02.784Z,83.10
2022-08-10T19:20:23.403Z,84.40
2022-08-10T19:23:05.449Z,85.30
2022-08-10T19:26:41.772Z,86.00
2022-08-10T19:28:39.489Z,86.00
2022-08-10T19:31:13.621Z,86.70
2022-08-10T19:33:52.580Z,87.60
2022-08-10T19:36:53.247Z,86.60
2022-08-10T19:39:30.228Z,84.70
2022-08-10T19:42:11.146Z,86.30
2022-08-10T19:44:48.463Z,87.20
2022-08-10T19:47:29.573Z,87.70
2022-08-10T19:50:04.227Z,88.30
2022-08-10T19:52:40.505Z,88.80
2022-08-10T19:55:18.927Z,89.40
2022-08-10T19:57:55.621Z,90.20
2022-08-10T20:00:29.450Z,90.50
2022-08-10T20:03:14.410Z,90.80
2022-08-10T20:06:12.939Z,90.70
2022-08-10T20:08:46.830Z,91.10
2022-08-10T20:11:44.538Z,91.10
2022-08-10T20:14:21.773Z,91.30
2022-08-10T20:16:56.104Z,91.70
2022-08-10T20:19:53.059Z,91.90
2022-08-10T20:22:28.979Z,92.10
2022-08-10T20:25:19.943Z,92.10
2022-08-10T20:27:59.819Z,92.20
2022-08-10T20:30:33.909Z,92.30
2022-08-10T20:33:12.107Z,92.40
2022-08-10T20:35:51.665Z,92.40
2022-08-10T20:38:27.161Z,92.50
2022-08-10T20:41:09.670Z,92.50
2022-08-10T20:43:45.903Z,92.60
2022-08-10T20:46:23.717Z,92.70
2022-08-10T20:48:59.670Z,92.80
2022-08-10T20:51:58.559Z,92.80
2022-08-10T20:54:32.657Z,92.70
2022-08-10T20:58:03.878Z,92.90
2022-08-10T21:00:23.018Z,93.10
2022-08-10T21:03:07.064Z,93.20
2022-08-10T21:05:52.935Z,93.40
2022-08-10T21:08:36.369Z,93.20
2022-08-10T21:11:12.630Z,93.30
2022-08-10T21:13:57.931Z,93.40
2022-08-10T21:16:41.927Z,93.50
2022-08-10T21:22:45.116Z,93.50
2022-08-10T21:25:18.516Z,93.60
2022-08-10T21:25:41.516Z,93.50
2022-08-10T21:28:16.682Z,93.70
2022-08-10T21:31:16.083Z,93.70
2022-08-10T21:34:08.597Z,93.80
2022-08-10T21:36:43.615Z,93.90
2022-08-10T21:39:21.888Z,93.90
2022-08-10T21:42:36.333Z,94.00
2022-08-10T21:45:58.778Z,93.90
2022-08-10T21:52:03.877Z,94.30
2022-08-10T21:55:02.330Z,94.40
2022-08-10T21:57:59.897Z,94.50
2022-08-10T22:00:46.557Z,94.50
2022-08-10T22:03:40.023Z,94.40
2022-08-10T22:06:27.782Z,94.50
2022-08-10T22:09:20.540Z,94.50
2022-08-10T22:12:30.916Z,94.60
2022-08-10T22:15:24.017Z,94.80
2022-08-10T22:18:32.460Z,94.80
2022-08-10T22:21:28.829Z,94.90
2022-08-10T22:24:45.592Z,95.00
2022-08-10T22:27:47.440Z,95.10
2022-08-10T22:30:35.858Z,95.10
2022-08-10T22:31:25.375Z,94.10
2022-08-10T22:33:36.971Z,95.20
2022-08-10T22:36:50.289Z,95.10
2022-08-10T22:40:11.176Z,95.50
2022-08-10T22:43:11.204Z,95.40
2022-08-10T22:46:05.818Z,95.30
2022-08-10T22:48:59.429Z,95.50
2022-08-10T22:51:37.574Z,95.60
2022-08-10T22:54:33.481Z,95.70
2022-08-10T22:57:22.688Z,95.90
2022-08-10T22:59:52.148Z,95.90
2022-08-10T23:02:30.724Z,96.10
2022-08-10T23:05:08.358Z,96.10
2022-08-10T23:07:46.388Z,96.10
2022-08-10T23:10:17.255Z,96.20
2022-08-10T23:12:50.814Z,96.30
2022-08-10T23:15:44.368Z,96.40
2022-08-10T23:18:36.736Z,96.30
2022-08-10T23:21:06.156Z,96.60
2022-08-10T23:23:40.504Z,96.60
2022-08-10T23:26:12.796Z,96.70
2022-08-10T23:28:58.269Z,96.90
2022-08-10T23:32:00.753Z,96.60
2022-08-10T23:34:22.860Z,97.00
2022-08-10T23:36:52.866Z,97.10
2022-08-10T23:39:28.170Z,97.20
2022-08-10T23:42:04.606Z,97.30
2022-08-10T23:44:42.602Z,97.50
2022-08-10T23:47:13.912Z,97.60
2022-08-10T23:49:43.932Z,97.70
2022-08-10T23:52:14.944Z,97.70
2022-08-10T23:54:47.135Z,97.90
2022-08-10T23:57:21.189Z,98.00
2022-08-10T23:59:57.778Z,98.10
